sensor_id;sensor_type;location;lat;lon;timestamp;temperature;humidity
17296;DHT22;8766;51.480;6.872;2022-09-27T00:01:23;13.10;68.10
17296;DHT22;8766;51.480;6.872;2022-09-27T00:03:52;13.10;68.10
17296;DHT22;8766;51.480;6.872;2022-09-27T00:06:22;13.10;68.20
17296;DHT22;8766;51.480;6.872;2022-09-27T00:08:49;13.00;68.20
17296;DHT22;8766;51.480;6.872;2022-09-27T00:11:21;13.10;68.30
17296;DHT22;8766;51.480;6.872;2022-09-27T00:13:49;13.00;68.30
17296;DHT22;8766;51.480;6.872;2022-09-27T00:16:17;13.00;68.20
17296;DHT22;8766;51.480;6.872;2022-09-27T00:18:44;13.10;68.30
17296;DHT22;8766;51.480;6.872;2022-09-27T00:21:12;13.10;68.20
17296;DHT22;8766;51.480;6.872;2022-09-27T00:23:39;13.10;68.20
17296;DHT22;8766;51.480;6.872;2022-09-27T00:26:07;13.10;68.30
17296;DHT22;8766;51.480;6.872;2022-09-27T00:28:36;13.00;68.20
17296;DHT22;8766;51.480;6.872;2022-09-27T00:31:03;13.00;68.20
17296;DHT22;8766;51.480;6.872;2022-09-27T00:33:31;13.10;68.20
17296;DHT22;8766;51.480;6.872;2022-09-27T00:36:03;13.10;68.20
17296;DHT22;8766;51.480;6.872;2022-09-27T00:38:30;13.10;68.20
17296;DHT22;8766;51.480;6.872;2022-09-27T00:40:57;13.10;68.10
17296;DHT22;8766;51.480;6.872;2022-09-27T00:43:24;13.10;68.10
17296;DHT22;8766;51.480;6.872;2022-09-27T00:45:52;13.10;68.10
17296;DHT22;8766;51.480;6.872;2022-09-27T00:48:25;13.10;68.20
17296;DHT22;8766;51.480;6.872;2022-09-27T00:50:58;13.10;68.10
17296;DHT22;8766;51.480;6.872;2022-09-27T00:53:29;13.10;68.10
17296;DHT22;8766;51.480;6.872;2022-09-27T00:56:00;13.10;68.10
17296;DHT22;8766;51.480;6.872;2022-09-27T00:58:31;13.10;68.10
17296;DHT22;8766;51.480;6.872;2022-09-27T01:01:02;13.10;68.10
17296;DHT22;8766;51.480;6.872;2022-09-27T01:03:36;13.10;68.10
17296;DHT22;8766;51.480;6.872;2022-09-27T01:06:07;13.10;68.10
17296;DHT22;8766;51.480;6.872;2022-09-27T01:08:34;13.10;68.20
17296;DHT22;8766;51.480;6.872;2022-09-27T01:11:17;13.10;68.20
17296;DHT22;8766;51.480;6.872;2022-09-27T01:13:57;13.00;68.20
17296;DHT22;8766;51.480;6.872;2022-09-27T01:16:34;13.00;68.20
17296;DHT22;8766;51.480;6.872;2022-09-27T01:19:12;13.00;68.20
17296;DHT22;8766;51.480;6.872;2022-09-27T01:21:47;13.10;68.30
17296;DHT22;8766;51.480;6.872;2022-09-27T01:30:20;13.00;68.20
17296;DHT22;8766;51.480;6.872;2022-09-27T01:32:53;13.00;68.20
17296;DHT22;8766;51.480;6.872;2022-09-27T01:35:26;13.00;68.20
17296;DHT22;8766;51.480;6.872;2022-09-27T01:38:02;13.00;68.20
17296;DHT22;8766;51.480;6.872;2022-09-27T01:40:35;13.00;68.30
17296;DHT22;8766;51.480;6.872;2022-09-27T01:43:08;13.00;68.30
17296;DHT22;8766;51.480;6.872;2022-09-27T01:45:39;13.00;68.30
17296;DHT22;8766;51.480;6.872;2022-09-27T01:48:10;13.00;68.30
17296;DHT22;8766;51.480;6.872;2022-09-27T01:50:41;13.00;68.30
17296;DHT22;8766;51.480;6.872;2022-09-27T01:53:15;13.00;68.30
17296;DHT22;8766;51.480;6.872;2022-09-27T01:55:47;12.90;68.30
17296;DHT22;8766;51.480;6.872;2022-09-27T01:58:21;12.90;68.30
17296;DHT22;8766;51.480;6.872;2022-09-27T02:00:52;12.90;68.30
17296;DHT22;8766;51.480;6.872;2022-09-27T02:03:21;12.90;68.40
17296;DHT22;8766;51.480;6.872;2022-09-27T02:05:52;12.90;68.50
17296;DHT22;8766;51.480;6.872;2022-09-27T02:08:24;12.90;68.40
17296;DHT22;8766;51.480;6.872;2022-09-27T02:10:54;12.90;68.40
17296;DHT22;8766;51.480;6.872;2022-09-27T02:13:26;12.90;68.40
17296;DHT22;8766;51.480;6.872;2022-09-27T02:16:03;12.90;68.40
17296;DHT22;8766;51.480;6.872;2022-09-27T02:18:35;12.90;68.50
17296;DHT22;8766;51.480;6.872;2022-09-27T02:21:07;12.90;68.40
17296;DHT22;8766;51.480;6.872;2022-09-27T02:23:40;12.90;68.40
17296;DHT22;8766;51.480;6.872;2022-09-27T02:26:13;12.90;68.40
17296;DHT22;8766;51.480;6.872;2022-09-27T02:28:44;12.90;68.40
17296;DHT22;8766;51.480;6.872;2022-09-27T02:31:15;12.90;68.40
17296;DHT22;8766;51.480;6.872;2022-09-27T02:33:44;12.90;68.50
17296;DHT22;8766;51.480;6.872;2022-09-27T02:36:12;12.90;68.50
17296;DHT22;8766;51.480;6.872;2022-09-27T02:38:40;12.90;68.50
17296;DHT22;8766;51.480;6.872;2022-09-27T02:41:13;12.90;68.50
17296;DHT22;8766;51.480;6.872;2022-09-27T02:43:43;12.90;68.50
17296;DHT22;8766;51.480;6.872;2022-09-27T02:46:28;12.90;68.50
17296;DHT22;8766;51.480;6.872;2022-09-27T02:49:03;12.90;68.50
17296;DHT22;8766;51.480;6.872;2022-09-27T02:51:42;12.90;68.50
17296;DHT22;8766;51.480;6.872;2022-09-27T02:54:22;12.80;68.50
17296;DHT22;8766;51.480;6.872;2022-09-27T02:57:00;12.80;68.50
17296;DHT22;8766;51.480;6.872;2022-09-27T02:59:34;12.80;68.50
17296;DHT22;8766;51.480;6.872;2022-09-27T03:02:10;12.80;68.50
17296;DHT22;8766;51.480;6.872;2022-09-27T03:04:41;12.80;68.50
17296;DHT22;8766;51.480;6.872;2022-09-27T03:07:11;12.80;68.50
17296;DHT22;8766;51.480;6.872;2022-09-27T03:09:42;12.80;68.60
17296;DHT22;8766;51.480;6.872;2022-09-27T03:12:10;12.70;68.70
17296;DHT22;8766;51.480;6.872;2022-09-27T03:14:37;12.70;68.80
17296;DHT22;8766;51.480;6.872;2022-09-27T03:17:06;12.70;68.80
17296;DHT22;8766;51.480;6.872;2022-09-27T03:19:33;12.70;68.90
17296;DHT22;8766;51.480;6.872;2022-09-27T03:21:59;12.60;68.80
17296;DHT22;8766;51.480;6.872;2022-09-27T03:24:26;12.60;68.90
17296;DHT22;8766;51.480;6.872;2022-09-27T03:26:53;12.60;68.90
17296;DHT22;8766;51.480;6.872;2022-09-27T03:29:20;12.60;68.90
17296;DHT22;8766;51.480;6.872;2022-09-27T03:31:47;12.70;68.90
17296;DHT22;8766;51.480;6.872;2022-09-27T03:34:15;12.70;68.80
17296;DHT22;8766;51.480;6.872;2022-09-27T03:36:42;12.70;68.80
17296;DHT22;8766;51.480;6.872;2022-09-27T03:39:09;12.60;68.80
17296;DHT22;8766;51.480;6.872;2022-09-27T03:41:36;12.60;68.80
17296;DHT22;8766;51.480;6.872;2022-09-27T03:44:03;12.60;69.10
17296;DHT22;8766;51.480;6.872;2022-09-27T03:46:30;12.50;69.20
17296;DHT22;8766;51.480;6.872;2022-09-27T03:48:57;12.40;69.30
17296;DHT22;8766;51.480;6.872;2022-09-27T03:51:26;12.40;69.50
17296;DHT22;8766;51.480;6.872;2022-09-27T03:53:52;12.30;69.60
17296;DHT22;8766;51.480;6.872;2022-09-27T03:56:19;12.30;69.80
17296;DHT22;8766;51.480;6.872;2022-09-27T03:58:46;12.20;69.70
17296;DHT22;8766;51.480;6.872;2022-09-27T04:01:13;12.20;69.80
17296;DHT22;8766;51.480;6.872;2022-09-27T04:03:40;12.10;69.90
17296;DHT22;8766;51.480;6.872;2022-09-27T04:06:07;12.10;70.10
17296;DHT22;8766;51.480;6.872;2022-09-27T04:08:35;12.00;70.20
17296;DHT22;8766;51.480;6.872;2022-09-27T04:11:03;12.00;70.30
17296;DHT22;8766;51.480;6.872;2022-09-27T04:13:29;11.90;70.40
17296;DHT22;8766;51.480;6.872;2022-09-27T04:15:56;11.90;70.50
17296;DHT22;8766;51.480;6.872;2022-09-27T04:18:23;11.90;71.20
17296;DHT22;8766;51.480;6.872;2022-09-27T04:20:50;11.90;70.60
17296;DHT22;8766;51.480;6.872;2022-09-27T04:23:17;11.80;70.50
17296;DHT22;8766;51.480;6.872;2022-09-27T04:25:46;11.80;70.60
17296;DHT22;8766;51.480;6.872;2022-09-27T04:28:13;11.80;70.70
17296;DHT22;8766;51.480;6.872;2022-09-27T04:30:40;11.80;70.70
17296;DHT22;8766;51.480;6.872;2022-09-27T04:33:07;11.80;70.70
17296;DHT22;8766;51.480;6.872;2022-09-27T04:35:34;11.70;70.70
17296;DHT22;8766;51.480;6.872;2022-09-27T04:38:18;11.80;70.70
17296;DHT22;8766;51.480;6.872;2022-09-27T04:40:50;11.70;70.70
17296;DHT22;8766;51.480;6.872;2022-09-27T04:43:17;11.80;70.60
17296;DHT22;8766;51.480;6.872;2022-09-27T04:45:44;11.80;70.50
17296;DHT22;8766;51.480;6.872;2022-09-27T04:48:11;11.80;70.40
17296;DHT22;8766;51.480;6.872;2022-09-27T04:50:38;11.80;70.40
17296;DHT22;8766;51.480;6.872;2022-09-27T04:53:05;11.80;70.40
17296;DHT22;8766;51.480;6.872;2022-09-27T04:55:33;11.80;70.50
17296;DHT22;8766;51.480;6.872;2022-09-27T04:58:01;11.80;71.20
17296;DHT22;8766;51.480;6.872;2022-09-27T05:00:29;11.80;70.50
17296;DHT22;8766;51.480;6.872;2022-09-27T05:02:56;11.80;71.20
17296;DHT22;8766;51.480;6.872;2022-09-27T05:05:23;11.80;70.60
17296;DHT22;8766;51.480;6.872;2022-09-27T05:07:50;11.80;70.50
17296;DHT22;8766;51.480;6.872;2022-09-27T05:10:17;11.80;70.60
17296;DHT22;8766;51.480;6.872;2022-09-27T05:12:44;11.80;70.50
17296;DHT22;8766;51.480;6.872;2022-09-27T05:15:12;11.90;70.50
17296;DHT22;8766;51.480;6.872;2022-09-27T05:17:39;11.90;70.30
17296;DHT22;8766;51.480;6.872;2022-09-27T05:20:07;11.90;70.20
17296;DHT22;8766;51.480;6.872;2022-09-27T05:22:35;11.90;70.10
17296;DHT22;8766;51.480;6.872;2022-09-27T05:25:02;12.00;70.00
17296;DHT22;8766;51.480;6.872;2022-09-27T05:27:29;12.00;70.00
17296;DHT22;8766;51.480;6.872;2022-09-27T05:29:56;11.90;70.00
17296;DHT22;8766;51.480;6.872;2022-09-27T05:32:26;11.90;70.00
17296;DHT22;8766;51.480;6.872;2022-09-27T05:34:53;11.90;70.20
17296;DHT22;8766;51.480;6.872;2022-09-27T05:37:20;11.90;70.20
17296;DHT22;8766;51.480;6.872;2022-09-27T05:39:47;11.90;70.30
17296;DHT22;8766;51.480;6.872;2022-09-27T05:42:14;11.90;70.30
17296;DHT22;8766;51.480;6.872;2022-09-27T05:44:42;11.90;70.30
17296;DHT22;8766;51.480;6.872;2022-09-27T05:47:13;11.90;70.20
17296;DHT22;8766;51.480;6.872;2022-09-27T05:49:41;11.90;70.10
17296;DHT22;8766;51.480;6.872;2022-09-27T05:52:08;11.90;70.10
17296;DHT22;8766;51.480;6.872;2022-09-27T05:54:35;12.00;70.00
17296;DHT22;8766;51.480;6.872;2022-09-27T05:57:02;12.00;69.80
17296;DHT22;8766;51.480;6.872;2022-09-27T05:59:30;12.00;69.70
17296;DHT22;8766;51.480;6.872;2022-09-27T06:01:57;12.10;69.60
17296;DHT22;8766;51.480;6.872;2022-09-27T06:04:24;12.10;69.50
17296;DHT22;8766;51.480;6.872;2022-09-27T06:06:52;12.10;69.50
17296;DHT22;8766;51.480;6.872;2022-09-27T06:09:19;12.10;69.40
17296;DHT22;8766;51.480;6.872;2022-09-27T06:11:46;12.20;69.40
17296;DHT22;8766;51.480;6.872;2022-09-27T06:14:13;12.20;69.20
17296;DHT22;8766;51.480;6.872;2022-09-27T06:16:40;12.30;69.20
17296;DHT22;8766;51.480;6.872;2022-09-27T06:19:07;12.30;69.10
17296;DHT22;8766;51.480;6.872;2022-09-27T06:21:34;12.30;69.10
17296;DHT22;8766;51.480;6.872;2022-09-27T06:24:03;12.30;69.20
17296;DHT22;8766;51.480;6.872;2022-09-27T06:26:31;12.30;69.20
17296;DHT22;8766;51.480;6.872;2022-09-27T06:28:59;12.30;69.10
17296;DHT22;8766;51.480;6.872;2022-09-27T06:31:26;12.30;69.10
17296;DHT22;8766;51.480;6.872;2022-09-27T06:33:53;12.30;69.10
17296;DHT22;8766;51.480;6.872;2022-09-27T06:36:19;12.30;69.10
17296;DHT22;8766;51.480;6.872;2022-09-27T06:38:47;12.30;69.10
17296;DHT22;8766;51.480;6.872;2022-09-27T06:41:15;12.30;69.80
17296;DHT22;8766;51.480;6.872;2022-09-27T06:43:42;12.30;69.20
17296;DHT22;8766;51.480;6.872;2022-09-27T06:46:09;12.20;69.20
17296;DHT22;8766;51.480;6.872;2022-09-27T06:48:36;12.20;69.20
17296;DHT22;8766;51.480;6.872;2022-09-27T06:51:04;12.20;69.30
17296;DHT22;8766;51.480;6.872;2022-09-27T06:53:31;12.20;69.20
17296;DHT22;8766;51.480;6.872;2022-09-27T06:55:59;12.20;69.20
17296;DHT22;8766;51.480;6.872;2022-09-27T06:58:28;12.30;69.20
17296;DHT22;8766;51.480;6.872;2022-09-27T07:01:12;12.40;69.20
17296;DHT22;8766;51.480;6.872;2022-09-27T07:03:39;12.30;68.90
17296;DHT22;8766;51.480;6.872;2022-09-27T07:06:15;12.40;69.00
17296;DHT22;8766;51.480;6.872;2022-09-27T07:08:42;12.40;68.90
17296;DHT22;8766;51.480;6.872;2022-09-27T07:11:09;12.40;68.80
17296;DHT22;8766;51.480;6.872;2022-09-27T07:13:38;12.50;68.60
17296;DHT22;8766;51.480;6.872;2022-09-27T07:16:10;12.60;68.60
17296;DHT22;8766;51.480;6.872;2022-09-27T07:18:37;12.60;68.30
17296;DHT22;8766;51.480;6.872;2022-09-27T07:21:04;12.70;68.20
17296;DHT22;8766;51.480;6.872;2022-09-27T07:23:33;12.80;68.10
17296;DHT22;8766;51.480;6.872;2022-09-27T07:26:12;12.90;67.90
17296;DHT22;8766;51.480;6.872;2022-09-27T07:28:41;13.00;67.60
17296;DHT22;8766;51.480;6.872;2022-09-27T07:31:09;13.10;67.30
17296;DHT22;8766;51.480;6.872;2022-09-27T07:33:37;13.20;67.10
17296;DHT22;8766;51.480;6.872;2022-09-27T07:36:08;13.30;66.80
17296;DHT22;8766;51.480;6.872;2022-09-27T07:38:36;13.60;66.50
17296;DHT22;8766;51.480;6.872;2022-09-27T07:41:07;13.80;66.00
17296;DHT22;8766;51.480;6.872;2022-09-27T07:43:34;14.00;65.50
17296;DHT22;8766;51.480;6.872;2022-09-27T07:46:02;14.10;65.20
17296;DHT22;8766;51.480;6.872;2022-09-27T07:48:29;14.10;65.10
17296;DHT22;8766;51.480;6.872;2022-09-27T07:50:56;14.10;65.30
17296;DHT22;8766;51.480;6.872;2022-09-27T07:53:23;14.10;65.30
17296;DHT22;8766;51.480;6.872;2022-09-27T07:55:50;14.10;65.30
17296;DHT22;8766;51.480;6.872;2022-09-27T07:58:19;14.20;65.10
17296;DHT22;8766;51.480;6.872;2022-09-27T08:00:46;14.30;65.00
17296;DHT22;8766;51.480;6.872;2022-09-27T08:03:16;14.30;65.00
17296;DHT22;8766;51.480;6.872;2022-09-27T08:05:44;14.20;65.20
17296;DHT22;8766;51.480;6.872;2022-09-27T08:08:12;14.00;66.10
17296;DHT22;8766;51.480;6.872;2022-09-27T08:10:39;13.90;65.90
17296;DHT22;8766;51.480;6.872;2022-09-27T08:13:12;13.70;66.40
17296;DHT22;8766;51.480;6.872;2022-09-27T08:15:42;13.60;66.60
17296;DHT22;8766;51.480;6.872;2022-09-27T08:18:09;13.60;66.70
17296;DHT22;8766;51.480;6.872;2022-09-27T08:20:37;13.70;66.50
17296;DHT22;8766;51.480;6.872;2022-09-27T08:23:04;13.90;66.10
17296;DHT22;8766;51.480;6.872;2022-09-27T08:25:31;14.20;65.50
17296;DHT22;8766;51.480;6.872;2022-09-27T08:28:00;14.30;65.10
17296;DHT22;8766;51.480;6.872;2022-09-27T08:30:28;14.30;64.90
17296;DHT22;8766;51.480;6.872;2022-09-27T08:32:58;14.30;64.90
17296;DHT22;8766;51.480;6.872;2022-09-27T08:35:25;14.30;65.10
17296;DHT22;8766;51.480;6.872;2022-09-27T08:37:56;14.30;65.10
17296;DHT22;8766;51.480;6.872;2022-09-27T08:40:30;14.40;65.00
17296;DHT22;8766;51.480;6.872;2022-09-27T08:43:03;14.40;64.80
17296;DHT22;8766;51.480;6.872;2022-09-27T08:45:36;14.40;64.70
17296;DHT22;8766;51.480;6.872;2022-09-27T08:48:05;14.40;64.80
17296;DHT22;8766;51.480;6.872;2022-09-27T08:50:36;14.30;65.00
17296;DHT22;8766;51.480;6.872;2022-09-27T08:53:14;14.20;65.20
17296;DHT22;8766;51.480;6.872;2022-09-27T08:55:44;14.10;66.10
17296;DHT22;8766;51.480;6.872;2022-09-27T08:58:18;14.00;65.60
17296;DHT22;8766;51.480;6.872;2022-09-27T09:00:49;13.90;65.80
17296;DHT22;8766;51.480;6.872;2022-09-27T09:03:18;13.80;66.10
17296;DHT22;8766;51.480;6.872;2022-09-27T09:05:55;13.80;66.30
17296;DHT22;8766;51.480;6.872;2022-09-27T09:08:35;13.80;66.30
17296;DHT22;8766;51.480;6.872;2022-09-27T09:11:08;13.80;66.30
17296;DHT22;8766;51.480;6.872;2022-09-27T09:14:20;13.80;66.30
17296;DHT22;8766;51.480;6.872;2022-09-27T09:16:59;13.80;66.30
17296;DHT22;8766;51.480;6.872;2022-09-27T09:19:43;13.70;66.40
17296;DHT22;8766;51.480;6.872;2022-09-27T09:22:24;13.70;66.40
17296;DHT22;8766;51.480;6.872;2022-09-27T09:27:53;13.80;66.20
17296;DHT22;8766;51.480;6.872;2022-09-27T09:30:23;13.80;66.10
17296;DHT22;8766;51.480;6.872;2022-09-27T09:33:04;13.80;66.10
17296;DHT22;8766;51.480;6.872;2022-09-27T09:35:35;13.80;66.10
17296;DHT22;8766;51.480;6.872;2022-09-27T09:38:05;13.80;65.90
17296;DHT22;8766;51.480;6.872;2022-09-27T09:40:40;13.90;65.80
17296;DHT22;8766;51.480;6.872;2022-09-27T09:43:12;13.90;65.80
17296;DHT22;8766;51.480;6.872;2022-09-27T09:45:44;13.90;65.80
17296;DHT22;8766;51.480;6.872;2022-09-27T09:48:16;13.80;65.80
17296;DHT22;8766;51.480;6.872;2022-09-27T09:50:48;13.90;66.00
17296;DHT22;8766;51.480;6.872;2022-09-27T09:53:19;13.90;66.00
17296;DHT22;8766;51.480;6.872;2022-09-27T09:55:51;13.90;65.90
17296;DHT22;8766;51.480;6.872;2022-09-27T09:58:25;13.90;65.80
17296;DHT22;8766;51.480;6.872;2022-09-27T10:00:58;13.90;65.70
17296;DHT22;8766;51.480;6.872;2022-09-27T10:03:26;13.90;65.80
17296;DHT22;8766;51.480;6.872;2022-09-27T10:05:53;13.90;65.80
17296;DHT22;8766;51.480;6.872;2022-09-27T10:08:21;14.00;65.80
17296;DHT22;8766;51.480;6.872;2022-09-27T10:10:50;14.00;65.70
17296;DHT22;8766;51.480;6.872;2022-09-27T10:13:18;14.00;65.70
17296;DHT22;8766;51.480;6.872;2022-09-27T10:15:52;14.00;65.60
17296;DHT22;8766;51.480;6.872;2022-09-27T10:18:22;14.10;65.50
17296;DHT22;8766;51.480;6.872;2022-09-27T10:20:55;14.10;65.40
17296;DHT22;8766;51.480;6.872;2022-09-27T10:23:23;14.20;65.30
17296;DHT22;8766;51.480;6.872;2022-09-27T10:25:54;14.30;65.00
17296;DHT22;8766;51.480;6.872;2022-09-27T10:28:28;14.50;64.80
17296;DHT22;8766;51.480;6.872;2022-09-27T10:30:59;14.50;64.60
17296;DHT22;8766;51.480;6.872;2022-09-27T10:33:28;14.70;64.30
17296;DHT22;8766;51.480;6.872;2022-09-27T10:35:57;14.80;64.00
17296;DHT22;8766;51.480;6.872;2022-09-27T10:38:26;15.00;63.70
17296;DHT22;8766;51.480;6.872;2022-09-27T10:40:56;15.20;63.30
17296;DHT22;8766;51.480;6.872;2022-09-27T10:43:29;15.50;63.40
17296;DHT22;8766;51.480;6.872;2022-09-27T10:46:05;15.60;62.30
17296;DHT22;8766;51.480;6.872;2022-09-27T10:48:35;15.70;62.10
17296;DHT22;8766;51.480;6.872;2022-09-27T10:51:05;15.80;62.00
17296;DHT22;8766;51.480;6.872;2022-09-27T10:53:34;15.70;62.00
17296;DHT22;8766;51.480;6.872;2022-09-27T10:56:03;15.60;62.40
17296;DHT22;8766;51.480;6.872;2022-09-27T10:58:33;15.40;62.90
17296;DHT22;8766;51.480;6.872;2022-09-27T11:01:03;15.30;63.30
17296;DHT22;8766;51.480;6.872;2022-09-27T11:03:32;15.20;63.50
17296;DHT22;8766;51.480;6.872;2022-09-27T11:06:18;15.20;63.60
17296;DHT22;8766;51.480;6.872;2022-09-27T11:08:48;15.20;63.60
17296;DHT22;8766;51.480;6.872;2022-09-27T11:11:18;15.20;63.60
17296;DHT22;8766;51.480;6.872;2022-09-27T11:13:59;15.20;63.60
17296;DHT22;8766;51.480;6.872;2022-09-27T11:16:44;15.10;63.60
17296;DHT22;8766;51.480;6.872;2022-09-27T11:19:25;15.10;63.70
17296;DHT22;8766;51.480;6.872;2022-09-27T11:22:00;15.10;63.90
17296;DHT22;8766;51.480;6.872;2022-09-27T11:24:47;15.10;63.90
17296;DHT22;8766;51.480;6.872;2022-09-27T11:27:23;15.10;63.90
17296;DHT22;8766;51.480;6.872;2022-09-27T11:30:02;15.20;63.70
17296;DHT22;8766;51.480;6.872;2022-09-27T11:32:42;15.30;63.50
17296;DHT22;8766;51.480;6.872;2022-09-27T11:35:28;15.40;63.30
17296;DHT22;8766;51.480;6.872;2022-09-27T11:38:06;15.50;63.20
17296;DHT22;8766;51.480;6.872;2022-09-27T11:40:49;15.50;62.80
17296;DHT22;8766;51.480;6.872;2022-09-27T11:43:29;15.60;62.80
17296;DHT22;8766;51.480;6.872;2022-09-27T11:46:04;15.60;62.60
17296;DHT22;8766;51.480;6.872;2022-09-27T11:48:46;15.60;62.60
17296;DHT22;8766;51.480;6.872;2022-09-27T11:51:31;15.60;63.20
17296;DHT22;8766;51.480;6.872;2022-09-27T11:54:23;15.70;62.50
17296;DHT22;8766;51.480;6.872;2022-09-27T11:56:58;15.70;62.60
17296;DHT22;8766;51.480;6.872;2022-09-27T11:59:45;15.60;62.80
17296;DHT22;8766;51.480;6.872;2022-09-27T12:05:19;15.20;63.50
17296;DHT22;8766;51.480;6.872;2022-09-27T12:08:10;15.20;63.70
17296;DHT22;8766;51.480;6.872;2022-09-27T12:10:40;15.20;63.70
17296;DHT22;8766;51.480;6.872;2022-09-27T12:13:12;15.10;63.70
17296;DHT22;8766;51.480;6.872;2022-09-27T12:15:42;15.10;64.00
17296;DHT22;8766;51.480;6.872;2022-09-27T12:18:14;14.90;64.10
17296;DHT22;8766;51.480;6.872;2022-09-27T12:20:46;14.80;64.50
17296;DHT22;8766;51.480;6.872;2022-09-27T12:23:17;14.70;64.80
17296;DHT22;8766;51.480;6.872;2022-09-27T12:25:48;14.60;65.10
17296;DHT22;8766;51.480;6.872;2022-09-27T12:28:21;14.50;65.20
17296;DHT22;8766;51.480;6.872;2022-09-27T12:30:57;14.40;65.40
17296;DHT22;8766;51.480;6.872;2022-09-27T12:33:33;14.30;65.50
17296;DHT22;8766;51.480;6.872;2022-09-27T12:36:06;14.30;65.70
17296;DHT22;8766;51.480;6.872;2022-09-27T12:38:39;14.10;65.80
17296;DHT22;8766;51.480;6.872;2022-09-27T12:41:11;14.10;66.10
17296;DHT22;8766;51.480;6.872;2022-09-27T12:43:45;14.10;66.20
17296;DHT22;8766;51.480;6.872;2022-09-27T12:46:22;14.10;66.10
17296;DHT22;8766;51.480;6.872;2022-09-27T12:48:57;14.20;66.00
17296;DHT22;8766;51.480;6.872;2022-09-27T12:51:33;14.20;65.70
17296;DHT22;8766;51.480;6.872;2022-09-27T12:54:19;14.40;65.50
17296;DHT22;8766;51.480;6.872;2022-09-27T12:56:55;14.50;65.10
17296;DHT22;8766;51.480;6.872;2022-09-27T12:59:38;14.60;64.80
17296;DHT22;8766;51.480;6.872;2022-09-27T13:08:44;14.90;64.10
17296;DHT22;8766;51.480;6.872;2022-09-27T13:11:15;14.90;63.90
17296;DHT22;8766;51.480;6.872;2022-09-27T13:13:46;15.00;63.90
17296;DHT22;8766;51.480;6.872;2022-09-27T13:16:13;14.90;63.80
17296;DHT22;8766;51.480;6.872;2022-09-27T13:18:53;14.90;64.00
17296;DHT22;8766;51.480;6.872;2022-09-27T13:24:45;14.90;64.20
17296;DHT22;8766;51.480;6.872;2022-09-27T13:27:35;14.90;64.10
17296;DHT22;8766;51.480;6.872;2022-09-27T13:33:30;14.80;64.20
17296;DHT22;8766;51.480;6.872;2022-09-27T13:36:25;14.80;64.20
17296;DHT22;8766;51.480;6.872;2022-09-27T13:39:00;14.90;64.10
17296;DHT22;8766;51.480;6.872;2022-09-27T13:41:41;14.90;63.90
17296;DHT22;8766;51.480;6.872;2022-09-27T13:44:21;15.00;63.70
17296;DHT22;8766;51.480;6.872;2022-09-27T13:46:54;15.10;63.60
17296;DHT22;8766;51.480;6.872;2022-09-27T13:49:26;15.20;63.50
17296;DHT22;8766;51.480;6.872;2022-09-27T13:51:56;15.20;63.30
17296;DHT22;8766;51.480;6.872;2022-09-27T13:54:37;15.30;63.20
17296;DHT22;8766;51.480;6.872;2022-09-27T13:57:46;15.40;63.20
17296;DHT22;8766;51.480;6.872;2022-09-27T14:00:17;15.40;63.10
17296;DHT22;8766;51.480;6.872;2022-09-27T14:02:54;15.50;62.90
17296;DHT22;8766;51.480;6.872;2022-09-27T14:05:26;15.40;62.80
17296;DHT22;8766;51.480;6.872;2022-09-27T14:07:54;15.60;62.80
17296;DHT22;8766;51.480;6.872;2022-09-27T14:10:24;15.60;62.70
17296;DHT22;8766;51.480;6.872;2022-09-27T14:12:54;15.50;62.60
17296;DHT22;8766;51.480;6.872;2022-09-27T14:15:23;15.60;62.80
17296;DHT22;8766;51.480;6.872;2022-09-27T14:17:51;15.50;63.00
17296;DHT22;8766;51.480;6.872;2022-09-27T14:20:36;15.40;63.10
17296;DHT22;8766;51.480;6.872;2022-09-27T14:23:05;15.30;63.40
17296;DHT22;8766;51.480;6.872;2022-09-27T14:25:32;15.20;63.50
17296;DHT22;8766;51.480;6.872;2022-09-27T14:28:00;15.20;63.80
17296;DHT22;8766;51.480;6.872;2022-09-27T14:30:28;15.10;63.90
17296;DHT22;8766;51.480;6.872;2022-09-27T14:32:56;15.00;64.10
17296;DHT22;8766;51.480;6.872;2022-09-27T14:35:25;14.90;64.20
17296;DHT22;8766;51.480;6.872;2022-09-27T14:38:12;14.90;64.30
17296;DHT22;8766;51.480;6.872;2022-09-27T14:40:41;14.90;64.40
17296;DHT22;8766;51.480;6.872;2022-09-27T14:43:14;14.90;64.30
17296;DHT22;8766;51.480;6.872;2022-09-27T14:45:42;14.90;64.20
17296;DHT22;8766;51.480;6.872;2022-09-27T14:48:29;14.90;64.20
17296;DHT22;8766;51.480;6.872;2022-09-27T14:50:58;14.80;64.20
17296;DHT22;8766;51.480;6.872;2022-09-27T14:53:29;14.80;64.30
17296;DHT22;8766;51.480;6.872;2022-09-27T14:55:57;14.80;64.30
17296;DHT22;8766;51.480;6.872;2022-09-27T14:58:27;14.80;64.30
17296;DHT22;8766;51.480;6.872;2022-09-27T15:00:55;14.80;64.30
17296;DHT22;8766;51.480;6.872;2022-09-27T15:03:28;14.80;64.20
17296;DHT22;8766;51.480;6.872;2022-09-27T15:05:56;14.80;64.20
17296;DHT22;8766;51.480;6.872;2022-09-27T15:08:26;14.90;64.10
17296;DHT22;8766;51.480;6.872;2022-09-27T15:10:54;14.90;64.10
17296;DHT22;8766;51.480;6.872;2022-09-27T15:13:21;14.90;64.00
17296;DHT22;8766;51.480;6.872;2022-09-27T15:15:51;14.90;63.90
17296;DHT22;8766;51.480;6.872;2022-09-27T15:18:33;14.80;63.80
17296;DHT22;8766;51.480;6.872;2022-09-27T15:21:05;15.00;63.80
17296;DHT22;8766;51.480;6.872;2022-09-27T15:23:35;15.10;63.50
17296;DHT22;8766;51.480;6.872;2022-09-27T15:26:08;15.20;63.30
17296;DHT22;8766;51.480;6.872;2022-09-27T15:28:36;15.20;63.20
17296;DHT22;8766;51.480;6.872;2022-09-27T15:31:05;15.20;63.10
17296;DHT22;8766;51.480;6.872;2022-09-27T15:33:33;15.20;63.20
17296;DHT22;8766;51.480;6.872;2022-09-27T15:36:02;15.20;63.20
17296;DHT22;8766;51.480;6.872;2022-09-27T15:38:31;15.10;63.30
17296;DHT22;8766;51.480;6.872;2022-09-27T15:41:09;15.10;63.50
17296;DHT22;8766;51.480;6.872;2022-09-27T15:43:39;15.00;63.60
17296;DHT22;8766;51.480;6.872;2022-09-27T15:46:28;15.00;63.70
17296;DHT22;8766;51.480;6.872;2022-09-27T15:49:25;14.90;63.80
17296;DHT22;8766;51.480;6.872;2022-09-27T15:51:56;14.90;64.00
17296;DHT22;8766;51.480;6.872;2022-09-27T15:54:24;14.80;64.00
17296;DHT22;8766;51.480;6.872;2022-09-27T15:56:53;14.70;64.20
17296;DHT22;8766;51.480;6.872;2022-09-27T15:59:21;14.60;64.30
17296;DHT22;8766;51.480;6.872;2022-09-27T16:01:54;14.60;64.40
17296;DHT22;8766;51.480;6.872;2022-09-27T16:04:21;14.60;64.50
17296;DHT22;8766;51.480;6.872;2022-09-27T16:06:48;14.50;64.60
17296;DHT22;8766;51.480;6.872;2022-09-27T16:09:16;14.50;64.60
17296;DHT22;8766;51.480;6.872;2022-09-27T16:11:44;14.50;64.70
17296;DHT22;8766;51.480;6.872;2022-09-27T16:14:10;14.40;64.80
17296;DHT22;8766;51.480;6.872;2022-09-27T16:16:41;14.30;64.90
17296;DHT22;8766;51.480;6.872;2022-09-27T16:19:09;14.30;65.00
17296;DHT22;8766;51.480;6.872;2022-09-27T16:21:36;14.20;65.20
17296;DHT22;8766;51.480;6.872;2022-09-27T16:24:03;14.10;65.30
17296;DHT22;8766;51.480;6.872;2022-09-27T16:26:30;14.10;65.40
17296;DHT22;8766;51.480;6.872;2022-09-27T16:28:58;14.10;65.50
17296;DHT22;8766;51.480;6.872;2022-09-27T16:31:25;14.00;65.50
17296;DHT22;8766;51.480;6.872;2022-09-27T16:33:52;14.00;65.70
17296;DHT22;8766;51.480;6.872;2022-09-27T16:36:20;13.90;66.40